createdAt,value
2018-02-25T00:00:29.001Z,19.33
2018-02-25T00:01:18.059Z,24.05
2018-02-25T00:02:07.152Z,24.10
2018-02-25T00:02:56.229Z,23.30
2018-02-25T00:03:45.507Z,27.05
2018-02-25T00:04:34.567Z,29.35
2018-02-25T00:05:23.635Z,27.67
2018-02-25T00:06:12.746Z,25.37
2018-02-25T00:07:01.865Z,24.52
2018-02-25T00:07:50.912Z,23.98
2018-02-25T00:08:39.966Z,23.77
2018-02-25T00:09:28.998Z,25.25
2018-02-25T00:10:18.054Z,26.60
2018-02-25T00:11:07.220Z,26.33
2018-02-25T00:11:56.250Z,24.98
2018-02-25T00:12:45.349Z,23.77
2018-02-25T00:13:34.366Z,21.70
2018-02-25T00:14:23.429Z,23.67
2018-02-25T00:15:12.482Z,22.50
2018-02-25T00:16:01.538Z,22.80
2018-02-25T00:16:50.617Z,23.38
2018-02-25T00:17:39.659Z,23.40
2018-02-25T00:18:28.702Z,22.90
2018-02-25T00:19:17.730Z,20.88
2018-02-25T00:20:06.785Z,21.12
2018-02-25T00:20:55.836Z,20.45
2018-02-25T00:21:44.918Z,19.60
2018-02-25T00:22:34.206Z,19.92
2018-02-25T00:23:23.240Z,20.23
2018-02-25T00:24:12.300Z,19.83
2018-02-25T00:25:01.343Z,21.58
2018-02-25T00:25:50.378Z,19.17
2018-02-25T00:26:39.433Z,18.27
2018-02-25T00:27:28.568Z,20.83
2018-02-25T00:28:17.632Z,17.48
2018-02-25T00:29:06.680Z,18.12
2018-02-25T00:29:55.731Z,17.17
2018-02-25T00:30:44.813Z,19.12
2018-02-25T00:31:33.877Z,18.55
2018-02-25T00:32:22.941Z,19.80
2018-02-25T00:33:12.043Z,20.67
2018-02-25T00:34:01.082Z,20.55
2018-02-25T00:34:50.140Z,21.00
2018-02-25T00:35:39.202Z,21.50
2018-02-25T00:36:28.261Z,17.27
2018-02-25T00:37:17.340Z,17.55
2018-02-25T00:38:06.416Z,18.42
2018-02-25T00:38:55.457Z,19.87
2018-02-25T00:39:44.491Z,19.25
2018-02-25T00:40:33.551Z,18.60
2018-02-25T00:41:25.564Z,20.10
2018-02-25T00:42:14.616Z,19.30
2018-02-25T00:43:03.676Z,18.80
2018-02-25T00:43:52.820Z,18.02
2018-02-25T00:44:41.893Z,18.08
2018-02-25T00:45:31.006Z,17.75
2018-02-25T00:46:20.073Z,15.95
2018-02-25T00:47:09.198Z,17.60
2018-02-25T00:47:58.216Z,17.40
2018-02-25T00:48:47.252Z,18.30
2018-02-25T00:49:36.339Z,17.23
2018-02-25T00:50:25.397Z,17.77
2018-02-25T00:51:14.450Z,19.48
2018-02-25T00:52:03.513Z,21.27
2018-02-25T00:52:52.555Z,16.67
2018-02-25T00:53:41.602Z,16.05
2018-02-25T00:54:30.661Z,15.02
2018-02-25T00:55:19.750Z,15.95
2018-02-25T00:56:08.797Z,16.02
2018-02-25T00:56:57.866Z,16.62
2018-02-25T00:57:46.916Z,15.85
2018-02-25T00:58:35.958Z,16.08
2018-02-25T00:59:25.129Z,16.80
2018-02-25T01:00:14.231Z,16.70
2018-02-25T01:01:03.642Z,16.25
2018-02-25T01:01:52.679Z,17.75
2018-02-25T01:02:41.728Z,16.73
2018-02-25T01:03:30.771Z,15.32
2018-02-25T01:04:19.824Z,16.10
2018-02-25T01:05:08.929Z,17.42
2018-02-25T01:05:57.980Z,16.42
2018-02-25T01:06:47.026Z,16.20
2018-02-25T01:07:36.080Z,14.48
2018-02-25T01:08:25.157Z,16.65
2018-02-25T01:09:14.199Z,16.15
2018-02-25T01:10:03.250Z,16.77
2018-02-25T01:10:52.348Z,16.73
2018-02-25T01:11:41.392Z,17.60
2018-02-25T01:12:30.448Z,17.70
2018-02-25T01:13:19.488Z,17.35
2018-02-25T01:14:08.531Z,18.27
2018-02-25T01:14:57.616Z,19.62
2018-02-25T01:15:46.706Z,18.27
2018-02-25T01:16:35.769Z,15.75
2018-02-25T01:17:24.813Z,16.45
2018-02-25T01:18:13.860Z,17.35
2018-02-25T01:19:02.919Z,17.05
2018-02-25T01:19:51.994Z,15.43
2018-02-25T01:20:41.040Z,16.67
2018-02-25T01:21:30.179Z,16.02
2018-02-25T01:22:19.232Z,18.52
2018-02-25T01:23:08.282Z,17.30
2018-02-25T01:23:57.324Z,17.52
2018-02-25T01:24:46.423Z,17.52
2018-02-25T01:25:35.462Z,17.27
2018-02-25T01:26:24.518Z,16.58
2018-02-25T01:27:13.624Z,15.93
2018-02-25T01:28:02.673Z,15.88
2018-02-25T01:28:51.725Z,15.95
2018-02-25T01:29:40.764Z,15.57
2018-02-25T01:30:29.813Z,14.35
2018-02-25T01:31:18.872Z,13.20
2018-02-25T01:32:07.970Z,15.95
2018-02-25T01:32:57.075Z,15.43
2018-02-25T01:33:46.107Z,16.00
2018-02-25T01:34:35.137Z,17.87
2018-02-25T01:35:24.183Z,17.98
2018-02-25T01:36:13.226Z,18.48
2018-02-25T01:37:02.276Z,15.10
2018-02-25T01:37:51.321Z,14.48
2018-02-25T01:38:40.690Z,14.48
2018-02-25T01:39:29.718Z,15.93
2018-02-25T01:40:18.769Z,16.15
2018-02-25T01:41:07.811Z,15.82
2018-02-25T01:41:56.853Z,17.23
2018-02-25T01:42:45.917Z,18.25
2018-02-25T01:43:35.024Z,17.77
2018-02-25T01:44:24.099Z,18.48
2018-02-25T01:45:13.134Z,17.90
2018-02-25T01:46:02.171Z,18.92
2018-02-25T01:46:51.220Z,18.55
2018-02-25T01:47:40.269Z,18.75
2018-02-25T01:48:29.308Z,16.42
2018-02-25T01:49:18.415Z,16.25
2018-02-25T01:50:07.459Z,17.67
2018-02-25T01:51:05.294Z,15.43
2018-02-25T01:51:54.343Z,15.48
2018-02-25T01:52:43.558Z,14.70
2018-02-25T01:53:32.605Z,13.40
2018-02-25T01:54:21.667Z,15.35
2018-02-25T01:55:10.712Z,13.98
2018-02-25T01:55:59.760Z,15.23
2018-02-25T01:56:48.826Z,14.63
2018-02-25T01:57:37.859Z,16.87
2018-02-25T01:58:29.985Z,16.40
2018-02-25T01:59:19.036Z,13.18
2018-02-25T02:00:08.115Z,13.45
2018-02-25T02:00:57.182Z,13.30
2018-02-25T02:01:46.224Z,12.15
2018-02-25T02:02:35.271Z,12.77
2018-02-25T02:03:24.350Z,12.85
2018-02-25T02:04:13.455Z,13.43
2018-02-25T02:05:02.505Z,13.75
2018-02-25T02:05:51.556Z,13.25
2018-02-25T02:06:40.672Z,14.38
2018-02-25T02:07:29.728Z,13.82
2018-02-25T02:08:18.783Z,14.27
2018-02-25T02:09:07.831Z,12.60
2018-02-25T02:09:56.866Z,14.48
2018-02-25T02:10:45.913Z,15.75
2018-02-25T02:11:34.972Z,13.57
2018-02-25T02:12:24.100Z,15.10
2018-02-25T02:13:13.156Z,15.48
2018-02-25T02:14:02.199Z,15.32
2018-02-25T02:14:51.238Z,18.40
2018-02-25T02:15:40.293Z,20.65
2018-02-25T02:16:29.358Z,20.85
2018-02-25T02:17:18.506Z,18.05
2018-02-25T02:18:07.550Z,17.92
2018-02-25T02:18:56.581Z,15.82
2018-02-25T02:19:45.620Z,18.17
2018-02-25T02:20:34.698Z,17.90
2018-02-25T02:21:23.762Z,17.48
2018-02-25T02:22:12.811Z,17.55
2018-02-25T02:23:02.081Z,15.70
2018-02-25T02:23:51.143Z,15.95
2018-02-25T02:24:40.205Z,14.87
2018-02-25T02:25:29.261Z,12.95
2018-02-25T02:26:18.311Z,11.75
2018-02-25T02:27:07.350Z,13.20
2018-02-25T02:27:56.455Z,13.70
2018-02-25T02:28:45.561Z,13.88
2018-02-25T02:29:34.619Z,13.88
2018-02-25T02:30:23.676Z,13.68
2018-02-25T02:31:12.801Z,13.40
2018-02-25T02:32:01.852Z,13.60
2018-02-25T02:32:50.929Z,14.87
2018-02-25T02:33:39.972Z,14.18
2018-02-25T02:34:29.071Z,13.38
2018-02-25T02:35:18.120Z,12.75
2018-02-25T02:36:07.167Z,13.60
2018-02-25T02:36:56.260Z,11.65
2018-02-25T02:37:45.323Z,14.13
2018-02-25T02:38:34.371Z,12.82
2018-02-25T02:39:23.433Z,12.57
2018-02-25T02:40:12.499Z,11.98
2018-02-25T02:41:01.578Z,11.98
2018-02-25T02:41:50.978Z,11.40
2018-02-25T02:42:40.034Z,11.35
2018-02-25T02:43:29.086Z,10.65
2018-02-25T02:44:18.285Z,13.13
2018-02-25T02:45:07.344Z,11.77
2018-02-25T02:45:56.405Z,13.32
2018-02-25T02:46:45.452Z,12.30
2018-02-25T02:47:34.513Z,12.37
2018-02-25T02:48:23.556Z,12.68
2018-02-25T02:49:12.615Z,11.40
2018-02-25T02:50:01.711Z,12.05
2018-02-25T02:50:50.768Z,12.05
2018-02-25T02:51:39.865Z,11.23
2018-02-25T02:52:28.906Z,10.60
2018-02-25T02:53:17.973Z,11.90
2018-02-25T02:54:07.089Z,11.55
2018-02-25T02:54:56.162Z,11.20
2018-02-25T02:55:45.214Z,11.40
2018-02-25T02:56:34.427Z,11.65
2018-02-25T02:57:23.698Z,11.40
2018-02-25T02:58:12.748Z,11.52
2018-02-25T02:59:01.801Z,11.40
2018-02-25T02:59:50.843Z,11.57
2018-02-25T03:00:39.916Z,11.82
2018-02-25T03:01:29.020Z,10.68
2018-02-25T03:02:18.066Z,11.63
2018-02-25T03:03:07.176Z,10.95
2018-02-25T03:03:56.244Z,12.68
2018-02-25T03:04:45.483Z,10.45
2018-02-25T03:05:34.531Z,12.48
2018-02-25T03:06:23.573Z,11.77
2018-02-25T03:07:12.639Z,12.15
2018-02-25T03:08:01.696Z,11.90
2018-02-25T03:08:50.749Z,12.57
2018-02-25T03:09:39.797Z,14.68
2018-02-25T03:10:28.895Z,14.75
2018-02-25T03:11:17.953Z,13.23
2018-02-25T03:12:06.985Z,13.82
2018-02-25T03:12:56.064Z,13.75
2018-02-25T03:13:45.127Z,13.95
2018-02-25T03:14:34.173Z,16.42
2018-02-25T03:15:23.245Z,16.45
2018-02-25T03:16:12.313Z,17.65
2018-02-25T03:17:01.358Z,16.20
2018-02-25T03:17:50.411Z,18.20
2018-02-25T03:18:39.494Z,18.05
2018-02-25T03:19:28.535Z,13.52
2018-02-25T03:20:17.587Z,13.70
2018-02-25T03:21:06.657Z,13.95
2018-02-25T03:21:55.727Z,15.15
2018-02-25T03:22:44.770Z,16.12
2018-02-25T03:23:33.820Z,14.48
2018-02-25T03:24:22.973Z,15.20
2018-02-25T03:25:12.031Z,14.75
2018-02-25T03:26:01.080Z,15.73
2018-02-25T03:26:50.114Z,13.95
2018-02-25T03:27:39.161Z,13.32
2018-02-25T03:28:28.219Z,13.18
2018-02-25T03:29:17.299Z,15.00
2018-02-25T03:30:07.364Z,14.82
2018-02-25T03:30:56.414Z,15.43
2018-02-25T03:31:45.449Z,13.52
2018-02-25T03:32:34.537Z,14.57
2018-02-25T03:33:23.587Z,13.02
2018-02-25T03:34:12.678Z,12.43
2018-02-25T03:35:01.724Z,10.48
2018-02-25T03:35:50.780Z,11.12
2018-02-25T03:36:39.835Z,11.45
2018-02-25T03:37:28.889Z,12.25
2018-02-25T03:38:17.968Z,11.50
2018-02-25T03:39:07.006Z,13.05
2018-02-25T03:39:56.062Z,12.75
2018-02-25T03:40:45.111Z,13.07
2018-02-25T03:41:34.161Z,11.40
2018-02-25T03:42:23.282Z,10.23
2018-02-25T03:43:12.333Z,10.38
2018-02-25T03:44:01.391Z,11.15
2018-02-25T03:44:50.437Z,11.35
2018-02-25T03:45:39.484Z,10.80
2018-02-25T03:46:28.715Z,11.20
2018-02-25T03:47:17.757Z,9.55
2018-02-25T03:48:07.082Z,9.80
2018-02-25T03:48:56.138Z,10.70
2018-02-25T03:49:45.190Z,11.18
2018-02-25T03:50:34.245Z,11.27
2018-02-25T03:51:23.296Z,10.82
2018-02-25T03:52:12.376Z,11.98
2018-02-25T03:53:01.411Z,10.60
2018-02-25T03:53:50.439Z,10.93
2018-02-25T03:54:39.501Z,11.52
2018-02-25T03:55:28.549Z,11.57
2018-02-25T03:56:17.658Z,11.95
2018-02-25T03:57:06.710Z,11.75
2018-02-25T03:57:55.794Z,11.43
2018-02-25T03:58:44.835Z,11.93
2018-02-25T03:59:36.743Z,11.45
2018-02-25T04:00:25.795Z,10.38
2018-02-25T04:01:14.850Z,11.52
2018-02-25T04:02:04.014Z,12.15
2018-02-25T04:02:53.071Z,10.77
2018-02-25T04:03:42.418Z,11.32
2018-02-25T04:04:31.464Z,12.37
2018-02-25T04:05:20.505Z,11.63
2018-02-25T04:06:09.575Z,11.07
2018-02-25T04:06:58.672Z,12.63
2018-02-25T04:07:47.830Z,11.70
2018-02-25T04:08:36.890Z,11.85
2018-02-25T04:09:25.945Z,11.82
2018-02-25T04:10:14.998Z,12.32
2018-02-25T04:11:04.047Z,13.52
2018-02-25T04:11:53.094Z,13.82
2018-02-25T04:12:42.139Z,13.00
2018-02-25T04:13:31.230Z,11.75
2018-02-25T04:14:20.269Z,11.63
2018-02-25T04:15:09.329Z,12.65
2018-02-25T04:15:58.378Z,12.05
2018-02-25T04:16:47.424Z,12.50
2018-02-25T04:17:36.505Z,14.52
2018-02-25T04:18:25.557Z,12.57
2018-02-25T04:19:14.604Z,13.77
2018-02-25T04:20:03.665Z,13.18
2018-02-25T04:20:52.745Z,13.05
2018-02-25T04:21:41.786Z,12.05
2018-02-25T04:22:30.833Z,11.57
2018-02-25T04:23:20.132Z,11.88
2018-02-25T04:24:09.262Z,12.25
2018-02-25T04:24:58.463Z,11.70
2018-02-25T04:25:47.513Z,10.50
2018-02-25T04:26:36.560Z,10.55
2018-02-25T04:27:25.953Z,12.63
2018-02-25T04:28:14.991Z,12.00
2018-02-25T04:29:04.052Z,12.23
2018-02-25T04:29:53.142Z,11.80
2018-02-25T04:30:42.180Z,13.55
2018-02-25T04:31:31.301Z,13.02
2018-02-25T04:32:20.367Z,13.23
2018-02-25T04:33:09.495Z,11.63
2018-02-25T04:33:58.558Z,13.48
2018-02-25T04:34:47.640Z,12.05
2018-02-25T04:35:36.689Z,10.45
2018-02-25T04:36:25.736Z,11.43
2018-02-25T04:37:14.780Z,12.95
2018-02-25T04:38:03.833Z,12.20
2018-02-25T04:38:52.911Z,13.52
2018-02-25T04:39:41.962Z,11.98
2018-02-25T04:40:31.008Z,12.32
2018-02-25T04:41:20.047Z,12.57
2018-02-25T04:42:09.133Z,13.23
2018-02-25T04:42:58.183Z,10.57
2018-02-25T04:43:47.231Z,10.55
2018-02-25T04:44:36.471Z,11.27
2018-02-25T04:45:25.510Z,12.70
2018-02-25T04:46:14.554Z,13.23
2018-02-25T04:47:03.648Z,10.95
2018-02-25T04:47:52.694Z,12.52
2018-02-25T04:48:41.749Z,14.77
2018-02-25T04:49:30.798Z,13.13
2018-02-25T04:50:19.851Z,31.42
2018-02-25T04:51:08.922Z,16.50
2018-02-25T04:51:57.976Z,19.45
2018-02-25T04:52:47.135Z,14.93
2018-02-25T04:53:36.407Z,13.43
2018-02-25T04:54:25.460Z,13.85
2018-02-25T04:55:14.514Z,18.87
2018-02-25T04:56:03.588Z,25.05
2018-02-25T04:56:52.710Z,18.50
2018-02-25T04:57:41.757Z,15.65
2018-02-25T04:58:30.809Z,18.83
2018-02-25T04:59:19.925Z,18.05
2018-02-25T05:00:09.011Z,17.45
2018-02-25T05:00:58.290Z,16.83
2018-02-25T05:01:47.338Z,11.35
2018-02-25T05:02:36.394Z,14.35
2018-02-25T05:03:25.440Z,16.37
2018-02-25T05:04:14.499Z,17.05
2018-02-25T05:05:03.546Z,14.87
2018-02-25T05:05:52.618Z,18.30
2018-02-25T05:06:41.673Z,16.80
2018-02-25T05:07:30.724Z,16.85
2018-02-25T05:08:19.776Z,19.92
2018-02-25T05:09:08.814Z,21.00
2018-02-25T05:09:57.864Z,42.33
2018-02-25T05:10:46.919Z,35.30
2018-02-25T05:11:36.026Z,36.65
2018-02-25T05:12:25.082Z,47.65
2018-02-25T05:13:14.218Z,41.42
2018-02-25T05:14:03.259Z,51.17
2018-02-25T05:14:52.305Z,50.85
2018-02-25T05:15:41.371Z,36.85
2018-02-25T05:16:30.617Z,43.85
2018-02-25T05:17:19.659Z,31.85
2018-02-25T05:18:08.801Z,26.45
2018-02-25T05:18:57.865Z,24.63
2018-02-25T05:19:46.925Z,38.80
2018-02-25T05:20:35.991Z,26.58
2018-02-25T05:21:25.042Z,22.00
2018-02-25T05:22:14.114Z,27.20
2018-02-25T05:23:03.181Z,24.02
2018-02-25T05:23:52.288Z,37.08
2018-02-25T05:24:41.338Z,27.95
2018-02-25T05:25:30.424Z,23.10
2018-02-25T05:26:19.463Z,18.50
2018-02-25T05:27:08.507Z,17.50
2018-02-25T05:27:57.559Z,20.08
2018-02-25T05:28:46.627Z,18.42
2018-02-25T05:29:35.680Z,19.70
2018-02-25T05:30:24.731Z,25.48
2018-02-25T05:31:13.839Z,23.75
2018-02-25T05:32:02.918Z,19.87
2018-02-25T05:32:51.992Z,30.42
2018-02-25T05:33:41.036Z,29.12
2018-02-25T05:34:30.083Z,31.75
2018-02-25T05:35:19.132Z,29.37
2018-02-25T05:36:08.277Z,30.20
2018-02-25T05:36:57.337Z,27.20
2018-02-25T05:38:00.668Z,30.25
2018-02-25T05:38:49.841Z,39.92
2018-02-25T05:39:38.951Z,41.40
2018-02-25T05:40:28.008Z,44.92
2018-02-25T05:41:17.306Z,35.10
2018-02-25T05:42:06.362Z,22.25
2018-02-25T05:42:55.394Z,25.65
2018-02-25T05:43:44.463Z,30.70
2018-02-25T05:44:33.521Z,34.60
2018-02-25T05:45:22.572Z,37.60
2018-02-25T05:46:11.638Z,32.15
2018-02-25T05:47:00.717Z,28.33
2018-02-25T05:47:49.778Z,24.87
2018-02-25T05:48:38.827Z,26.87
2018-02-25T05:49:27.909Z,34.00
2018-02-25T05:50:16.964Z,87.85
2018-02-25T05:51:06.028Z,74.70
2018-02-25T05:51:58.146Z,55.03
2018-02-25T05:52:47.260Z,51.63
2018-02-25T05:53:36.336Z,42.70
2018-02-25T05:54:25.390Z,41.65
2018-02-25T05:55:14.428Z,42.42
2018-02-25T05:56:03.475Z,41.45
2018-02-25T05:56:52.512Z,43.20
2018-02-25T05:57:41.670Z,26.42
2018-02-25T05:58:30.718Z,22.27
2018-02-25T05:59:19.764Z,69.53
2018-02-25T06:00:08.816Z,69.10
2018-02-25T06:00:57.868Z,50.15
2018-02-25T06:01:46.918Z,56.55
2018-02-25T06:02:35.967Z,57.05
2018-02-25T06:03:25.438Z,47.53
2018-02-25T06:04:14.565Z,49.88
2018-02-25T06:05:03.702Z,69.37
2018-02-25T06:05:52.809Z,38.60
2018-02-25T06:06:41.866Z,34.88
2018-02-25T06:07:30.945Z,77.30
2018-02-25T06:08:20.037Z,78.57
2018-02-25T06:09:09.130Z,45.63
2018-02-25T06:09:58.200Z,48.25
2018-02-25T06:10:47.263Z,57.13
2018-02-25T06:11:36.337Z,44.97
2018-02-25T06:12:25.409Z,45.00
2018-02-25T06:13:14.469Z,41.85
2018-02-25T06:14:03.575Z,44.38
2018-02-25T06:14:52.644Z,33.03
2018-02-25T06:15:41.791Z,32.53
2018-02-25T06:16:30.842Z,27.98
2018-02-25T06:17:19.910Z,29.67
2018-02-25T06:18:08.970Z,23.58
2018-02-25T06:18:58.053Z,24.25
2018-02-25T06:19:47.124Z,24.85
2018-02-25T06:20:36.210Z,26.17
2018-02-25T06:21:25.476Z,25.20
2018-02-25T06:22:14.552Z,28.35
2018-02-25T06:23:03.749Z,23.50
2018-02-25T06:23:52.826Z,24.35
2018-02-25T06:24:41.902Z,27.45
2018-02-25T06:25:30.969Z,24.27
2018-02-25T06:26:20.020Z,29.33
2018-02-25T06:27:09.076Z,24.45
2018-02-25T06:27:58.147Z,24.98
2018-02-25T06:28:47.269Z,38.15
2018-02-25T06:29:36.338Z,31.27
2018-02-25T06:30:25.423Z,27.58
2018-02-25T06:31:14.478Z,27.80
2018-02-25T06:32:03.541Z,25.92
2018-02-25T06:32:52.586Z,26.17
2018-02-25T06:33:41.642Z,22.15
2018-02-25T06:34:30.699Z,24.87
2018-02-25T06:35:19.797Z,27.15
2018-02-25T06:36:08.956Z,22.98
2018-02-25T06:36:58.015Z,23.70
2018-02-25T06:37:47.082Z,27.13
2018-02-25T06:38:36.140Z,26.37
2018-02-25T06:39:25.216Z,25.92
2018-02-25T06:40:14.269Z,21.58
2018-02-25T06:41:03.317Z,23.38
2018-02-25T06:41:52.599Z,26.58
2018-02-25T06:42:41.716Z,23.02
2018-02-25T06:43:30.804Z,19.25
2018-02-25T06:44:19.866Z,19.27
2018-02-25T06:45:08.919Z,20.65
2018-02-25T06:45:57.991Z,20.00
2018-02-25T06:46:47.058Z,22.48
2018-02-25T06:47:36.111Z,22.70
2018-02-25T06:48:25.375Z,19.60
2018-02-25T06:49:14.413Z,21.02
2018-02-25T06:50:03.469Z,20.23
2018-02-25T06:50:52.524Z,49.95
2018-02-25T06:51:41.594Z,72.40
2018-02-25T06:52:30.826Z,45.50
2018-02-25T06:53:19.879Z,69.03
2018-02-25T06:54:08.995Z,57.58
2018-02-25T06:54:58.078Z,54.33
2018-02-25T06:55:47.173Z,39.53
2018-02-25T06:56:36.243Z,35.97
2018-02-25T06:57:25.280Z,35.08
2018-02-25T06:58:14.322Z,26.83
2018-02-25T06:59:03.401Z,26.75
2018-02-25T06:59:52.627Z,26.67
2018-02-25T07:00:41.692Z,32.70
2018-02-25T07:01:30.750Z,23.35
2018-02-25T07:02:20.493Z,24.00
2018-02-25T07:03:09.538Z,23.98
2018-02-25T07:03:58.605Z,24.83
2018-02-25T07:04:47.661Z,23.27
2018-02-25T07:05:36.762Z,19.48
2018-02-25T07:06:25.830Z,18.25
2018-02-25T07:07:14.910Z,28.15
2018-02-25T07:08:03.960Z,22.55
2018-02-25T07:08:53.020Z,23.20
2018-02-25T07:09:42.108Z,38.40
2018-02-25T07:10:31.191Z,35.50
2018-02-25T07:11:20.471Z,24.40
2018-02-25T07:12:09.542Z,23.38
2018-02-25T07:12:58.773Z,33.70
2018-02-25T07:13:47.886Z,34.05
2018-02-25T07:14:37.150Z,31.02
2018-02-25T07:15:26.246Z,32.78
2018-02-25T07:16:15.309Z,23.77
2018-02-25T07:17:04.363Z,30.65
2018-02-25T07:17:53.425Z,38.42
2018-02-25T07:18:42.581Z,38.33
2018-02-25T07:19:31.646Z,37.38
2018-02-25T07:20:20.695Z,31.92
2018-02-25T07:21:09.758Z,62.62
2018-02-25T07:21:58.807Z,45.20
2018-02-25T07:22:47.859Z,51.25
2018-02-25T07:23:36.902Z,43.55
2018-02-25T07:24:25.993Z,43.55
2018-02-25T07:25:15.061Z,35.38
2018-02-25T07:26:04.119Z,30.95
2018-02-25T07:26:53.182Z,27.95
2018-02-25T07:27:42.244Z,28.17
2018-02-25T07:28:31.300Z,29.27
2018-02-25T07:29:20.372Z,29.37
2018-02-25T07:30:09.952Z,27.85
2018-02-25T07:30:59.004Z,22.80
2018-02-25T07:31:48.081Z,28.15
2018-02-25T07:32:37.143Z,28.95
2018-02-25T07:33:26.275Z,27.90
2018-02-25T07:34:15.343Z,30.20
2018-02-25T07:35:04.406Z,31.98
2018-02-25T07:35:53.461Z,26.23
2018-02-25T07:36:42.533Z,28.20
2018-02-25T07:37:31.578Z,32.33
2018-02-25T07:38:20.634Z,28.70
2018-02-25T07:39:09.805Z,31.15
2018-02-25T07:39:58.903Z,28.55
2018-02-25T07:40:47.969Z,23.73
2018-02-25T07:41:37.068Z,25.85
2018-02-25T07:42:26.251Z,28.45
2018-02-25T07:43:15.325Z,34.28
2018-02-25T07:44:04.468Z,32.85
2018-02-25T07:44:53.579Z,26.75
2018-02-25T07:45:42.858Z,26.23
2018-02-25T07:46:31.924Z,29.63
2018-02-25T07:47:21.005Z,23.77
2018-02-25T07:48:11.348Z,44.17
2018-02-25T07:49:00.407Z,33.08
2018-02-25T07:49:49.509Z,26.48
2018-02-25T07:50:38.548Z,28.60
2018-02-25T07:51:27.674Z,28.80
2018-02-25T07:52:16.774Z,32.55
2018-02-25T07:53:05.827Z,35.03
2018-02-25T07:53:56.863Z,40.80
2018-02-25T07:54:45.908Z,27.48
2018-02-25T07:55:34.985Z,28.40
2018-02-25T07:56:24.047Z,30.95
2018-02-25T07:57:13.238Z,32.42
2018-02-25T07:58:02.317Z,34.08
2018-02-25T07:58:51.377Z,29.02
2018-02-25T07:59:40.440Z,29.27
2018-02-25T08:00:29.505Z,26.10
2018-02-25T08:01:18.669Z,33.58
2018-02-25T08:02:07.740Z,37.47
2018-02-25T08:02:59.923Z,37.25
2018-02-25T08:03:48.986Z,34.75
2018-02-25T08:04:38.031Z,33.47
2018-02-25T08:05:27.108Z,31.55
2018-02-25T08:06:16.166Z,30.92
2018-02-25T08:07:05.238Z,37.25
2018-02-25T08:07:54.290Z,33.05
2018-02-25T08:08:43.392Z,38.25
2018-02-25T08:09:32.447Z,29.02
2018-02-25T08:10:21.663Z,36.28
2018-02-25T08:11:10.722Z,38.47
2018-02-25T08:11:59.860Z,35.65
2018-02-25T08:12:48.926Z,41.35
2018-02-25T08:13:38.035Z,47.67
2018-02-25T08:14:27.109Z,34.75
2018-02-25T08:15:16.212Z,46.42
2018-02-25T08:16:05.331Z,31.02
2018-02-25T08:16:54.454Z,37.03
2018-02-25T08:17:43.536Z,32.70
2018-02-25T08:18:32.605Z,35.70
2018-02-25T08:19:21.769Z,32.95
2018-02-25T08:20:10.994Z,24.25
2018-02-25T08:21:00.060Z,27.40
2018-02-25T08:21:49.110Z,29.05
2018-02-25T08:22:38.187Z,28.98
2018-02-25T08:23:27.281Z,32.20
2018-02-25T08:24:16.366Z,30.60
2018-02-25T08:25:05.431Z,29.58
2018-02-25T08:25:54.531Z,88.60
2018-02-25T08:26:43.599Z,106.35
2018-02-25T08:27:32.690Z,33.95
2018-02-25T08:28:21.755Z,28.90
2018-02-25T08:29:10.864Z,45.05
2018-02-25T08:29:59.933Z,38.35
2018-02-25T08:30:48.978Z,35.58
2018-02-25T08:31:38.070Z,29.05
2018-02-25T08:32:27.129Z,45.05
2018-02-25T08:33:16.209Z,36.08
2018-02-25T08:34:05.303Z,29.85
2018-02-25T08:34:54.369Z,20.08
2018-02-25T08:35:43.418Z,23.15
2018-02-25T08:36:32.461Z,28.38
2018-02-25T08:37:21.664Z,26.10
2018-02-25T08:38:10.707Z,31.30
2018-02-25T08:38:59.772Z,27.90
2018-02-25T08:39:48.837Z,32.53
2018-02-25T08:40:37.973Z,109.93
2018-02-25T08:41:27.100Z,80.70
2018-02-25T08:42:16.156Z,40.67
2018-02-25T08:43:05.242Z,23.62
2018-02-25T08:43:54.291Z,32.17
2018-02-25T08:44:43.343Z,28.25
2018-02-25T08:45:34.838Z,24.50
2018-02-25T08:46:23.890Z,24.10
2018-02-25T08:47:12.938Z,46.17
2018-02-25T08:48:02.022Z,28.52
2018-02-25T08:48:51.297Z,23.15
2018-02-25T08:49:40.374Z,20.70
2018-02-25T08:50:29.434Z,46.90
2018-02-25T08:51:18.509Z,27.65
2018-02-25T08:52:07.628Z,26.05
2018-02-25T08:52:56.695Z,29.75
2018-02-25T08:53:45.751Z,25.20
2018-02-25T08:54:34.881Z,18.17
2018-02-25T08:55:23.971Z,24.95
2018-02-25T08:56:13.133Z,50.33
2018-02-25T08:57:02.234Z,65.65
2018-02-25T08:57:51.306Z,54.58
2018-02-25T08:58:40.358Z,28.77
2018-02-25T08:59:29.428Z,36.83
2018-02-25T09:00:18.479Z,29.83
2018-02-25T09:01:07.530Z,56.72
2018-02-25T09:01:56.660Z,41.90
2018-02-25T09:02:45.841Z,29.37
2018-02-25T09:03:34.918Z,39.47
2018-02-25T09:04:23.990Z,35.05
2018-02-25T09:05:13.053Z,25.48
2018-02-25T09:06:02.100Z,30.27
2018-02-25T09:06:51.176Z,31.10
2018-02-25T09:07:40.250Z,41.65
2018-02-25T09:08:29.562Z,32.20
2018-02-25T09:09:18.624Z,46.90
2018-02-25T09:10:07.678Z,35.55
2018-02-25T09:10:56.938Z,28.23
2018-02-25T09:11:45.993Z,27.33
2018-02-25T09:12:35.080Z,33.22
2018-02-25T09:13:24.140Z,26.35
2018-02-25T09:14:13.256Z,22.58
2018-02-25T09:15:02.327Z,25.12
2018-02-25T09:15:51.430Z,21.55
2018-02-25T09:16:40.476Z,22.62
2018-02-25T09:17:29.518Z,22.15
2018-02-25T09:18:18.584Z,23.20
2018-02-25T09:19:07.646Z,30.25
2018-02-25T09:19:56.841Z,24.75
2018-02-25T09:20:45.896Z,25.83
2018-02-25T09:21:36.012Z,37.65
2018-02-25T09:22:25.074Z,48.63
2018-02-25T09:23:14.951Z,53.80
2018-02-25T09:24:04.047Z,41.97
2018-02-25T09:24:59.075Z,35.20
2018-02-25T09:25:48.182Z,26.85
2018-02-25T09:26:38.998Z,31.17
2018-02-25T09:27:30.092Z,24.33
2018-02-25T09:28:20.453Z,27.13
2018-02-25T09:29:11.659Z,26.17
2018-02-25T09:30:02.950Z,25.42
2018-02-25T09:30:53.040Z,27.35
2018-02-25T09:31:42.124Z,24.25
2018-02-25T09:32:34.324Z,25.98
2018-02-25T09:33:23.414Z,25.20
2018-02-25T09:34:13.332Z,28.42
2018-02-25T09:35:02.390Z,26.62
2018-02-25T09:35:51.559Z,23.45
2018-02-25T09:36:40.627Z,25.83
2018-02-25T09:37:29.664Z,24.60
2018-02-25T09:38:18.710Z,25.67
2018-02-25T09:39:08.589Z,26.35
2018-02-25T09:39:58.950Z,26.40
2018-02-25T09:40:48.784Z,27.20
2018-02-25T09:41:38.925Z,23.83
2018-02-25T09:42:28.070Z,28.58
2018-02-25T09:43:17.149Z,27.58
2018-02-25T09:44:06.224Z,26.62
2018-02-25T09:44:56.025Z,23.42
2018-02-25T09:45:45.265Z,26.40
2018-02-25T09:46:34.401Z,23.33
2018-02-25T09:47:23.565Z,24.42
2018-02-25T09:48:12.621Z,30.48
2018-02-25T09:49:01.707Z,28.02
2018-02-25T09:49:50.762Z,24.00
2018-02-25T09:50:39.843Z,22.92
2018-02-25T09:51:28.923Z,20.88
2018-02-25T09:52:18.104Z,21.20
2018-02-25T09:53:07.161Z,21.77
2018-02-25T09:53:57.115Z,21.95
2018-02-25T10:07:37.488Z,27.50
2018-02-25T10:08:26.547Z,32.75
2018-02-25T10:09:15.599Z,25.70
2018-02-25T10:10:04.780Z,31.35
2018-02-25T10:10:53.943Z,25.65
2018-02-25T10:11:42.996Z,24.33
2018-02-25T10:12:32.076Z,27.25
2018-02-25T10:13:21.135Z,27.23
2018-02-25T10:14:10.350Z,23.38
2018-02-25T10:14:59.401Z,22.00
2018-02-25T10:15:48.535Z,16.37
2018-02-25T10:16:37.583Z,35.55
2018-02-25T10:17:26.642Z,77.75
2018-02-25T10:18:15.704Z,52.67
2018-02-25T10:19:04.780Z,48.40
2018-02-25T10:19:53.841Z,40.28
2018-02-25T10:20:42.905Z,105.50
2018-02-25T10:21:32.046Z,47.35
2018-02-25T10:22:21.099Z,37.33
2018-02-25T10:23:10.150Z,30.95
2018-02-25T10:23:59.202Z,28.15
2018-02-25T10:24:48.269Z,29.27
2018-02-25T10:25:37.320Z,28.42
2018-02-25T10:26:26.365Z,56.85
2018-02-25T10:27:15.539Z,33.15
2018-02-25T10:28:04.594Z,16.85
2018-02-25T10:28:53.637Z,18.60
2018-02-25T10:29:42.690Z,24.08
2018-02-25T10:30:31.741Z,21.50
2018-02-25T10:31:20.817Z,35.00
2018-02-25T10:32:09.890Z,22.85
2018-02-25T10:32:58.997Z,21.00
2018-02-25T10:33:48.058Z,18.65
2018-02-25T10:34:37.126Z,18.35
2018-02-25T10:35:26.230Z,20.90
2018-02-25T10:36:15.393Z,17.37
2018-02-25T10:37:04.473Z,18.77
2018-02-25T10:37:53.519Z,15.32
2018-02-25T10:38:42.667Z,16.73
2018-02-25T10:39:31.692Z,14.32
2018-02-25T10:40:20.758Z,18.73
2018-02-25T10:41:09.818Z,20.12
2018-02-25T10:41:58.883Z,20.92
2018-02-25T10:42:47.935Z,19.27
2018-02-25T10:43:36.988Z,16.42
2018-02-25T10:44:26.274Z,16.92
2018-02-25T10:45:15.333Z,23.65
2018-02-25T10:46:04.376Z,36.47